Accueil
METAR-TAF:

METAR-TAF

Aéroports :

Aéroport international de Ouagadougou

Ouagadougou, Burkina Faso

latitude: 12-21N, longitude: 001-31W, altitude: 316 m

Observation

Le bulletin a été fait il y a 30 minutes, à 15:00 UTC
Vent 6 kt de nord-ouest, variant entre ouest et nord/nord-est
Température 32°C
Humidité 6%
Pression 1012 hPa
Visibilité 10 km ou plus
pas de nuages en-dessous de 1500 mètres et pas de cumulonimbus.

METAR: DFFD 211500Z 32006KT 260V020 CAVOK 32/M10 Q1012 NOSIG

Heure: 15:30 (15:30 UTC)

Prévision

Le bulletin a été fait il y a 4 heures et 30 minutes, à 11:00 UTC
Prévision valable du 21 à 12 UTC au 22 à 18 UTC
Vent 6 kt de nord-est avec des rafales jusqu'à 16 kt
Visibilité 10 km ou plus
pas de nuages en-dessous de 1500 mètres et pas de cumulonimbus.

TAF: DFFD 211100Z 2112/2218 04006G16KT CAVOK

Observations et prévisions météorologiques de plus de 4000 aéroports (messages METAR et TAF).

Les stations disponibles sont représentées par des disques jaunes et rouges sur la carte.

Passer la souris dessus pour voir le nom de la station.

Cliquer dessus pour voir les observations et prévisions météorologiques.

Pour changer de carte: cliquez sur les boutons verts avec une croix noire pour zoomer, sur le bouton vert avec un tiret pour effectuer un zoom arrière, ou sur les flèches vertes pour les cartes adjacentes.


METAR-TAF: